Idaho Falls, ID

8:21 AM MST on January 25, 2015 (GMT -0700)
Ammon Ross Ave | Change Station
CLOSE
Current Station
Personal Weather Station
Location: Ammon, ID
Elevation: 4721 ft
Nearby Weather Stations
Active Advisory: Special Statement Active Notice: Record Report

Elev 4721 ft 43.47 °N, 111.96 °W | Updated 4 minutes ago

Fog
Fog
27.7 °F
Feels Like 28 °F
N
0.0
Wind Variable Wind from NW

Today
High -- | Low -- °F
--% Chance of Precip.
Yesterday
High -- | Low -- °F
Precip. -- in
7:50 AM 5:29 PM
Waxing Crescent, 33% visible
Pressure 30.55 in
Visibility 1.0 miles
Clouds Mostly Cloudy 300 ft
Overcast 800 ft
Windchill 28 °F
Dew Point 27 °F
Humidity 96%
Rainfall 0.00 in
Snow Depth Not available.
UV 0 out of 12
Pollen .10 out of 12
Air Quality Not available.
Flu Activity Not available.
METAR KIDA 251453Z 03003KT 1SM R20/P6000FT BR BKN003 OVC008 M02/M03 A3043 RMK AO2 SLP344 I1002 I3005 T10221028 56005

More Conditions Fewer Conditions

Pressure 30.55 in
Visibility 1.0 miles
Clouds Mostly Cloudy 300 ft
Overcast 800 ft
Windchill 28 °F
Dew Point 27 °F
Humidity 96%
Rainfall 0.00 in
Snow Depth Not available.
UV 0 out of 12
Pollen .10 out of 12
Air Quality Not available.
Flu Activity Not available.
METAR KIDA 251453Z 03003KT 1SM R20/P6000FT BR BKN003 OVC008 M02/M03 A3043 RMK AO2 SLP344 I1002 I3005 T10221028 56005

More Conditions Fewer Conditions

10-Day Weather Forecast

Almanac

Astronomy

Jan. 25, 2015 Rise Set
Actual Time
Civil Twilight
Nautical Twilight
Astronomical Twilight
Moon
Length of Visible Light
Length of Day
Tomorrow will be .
, % of the Moon is Illuminated

Today's Extremes

State Highs State Lows

Community

WunderPhotos

Upload Photos

1,789,912 photos uploaded!

WunderBlogs® & News

Nearby

Air Quality

  Air Quality AQ Index Pollutant
Not available.

Snow Depth

Station Depth Elevation

Earthquake Activity

City Distance Mag. Time & Date
Minimum magnitude displayed is 2.5.

Coastal Water Temperatures

Place Temperature

Nearby Weather Stations